sensor_id;sensor_type;location;lat;lon;timestamp;P1;durP1;ratioP1;P2;durP2;ratioP2
45077;SDS011;60508;42.622;25.416;2023-05-21T00:00:10;5.32;;;3.95;;
45077;SDS011;60508;42.622;25.416;2023-05-21T00:02:47;5.55;;;3.03;;
45077;SDS011;60508;42.622;25.416;2023-05-21T00:05:14;9.30;;;3.40;;
45077;SDS011;60508;42.622;25.416;2023-05-21T00:07:43;8.82;;;3.08;;
45077;SDS011;60508;42.622;25.416;2023-05-21T00:10:10;9.85;;;3.58;;
45077;SDS011;60508;42.622;25.416;2023-05-21T00:12:45;6.28;;;3.08;;
45077;SDS011;60508;42.622;25.416;2023-05-21T00:15:12;7.60;;;3.40;;
45077;SDS011;60508;42.622;25.416;2023-05-21T00:17:39;8.77;;;3.47;;
45077;SDS011;60508;42.622;25.416;2023-05-21T00:20:13;6.85;;;3.53;;
45077;SDS011;60508;42.622;25.416;2023-05-21T00:22:41;16.20;;;4.38;;
45077;SDS011;60508;42.622;25.416;2023-05-21T00:25:09;8.13;;;3.78;;
45077;SDS011;60508;42.622;25.416;2023-05-21T00:27:37;7.47;;;3.97;;
45077;SDS011;60508;42.622;25.416;2023-05-21T00:30:05;6.55;;;3.83;;
45077;SDS011;60508;42.622;25.416;2023-05-21T00:32:32;12.35;;;3.85;;
45077;SDS011;60508;42.622;25.416;2023-05-21T00:35:06;11.60;;;3.92;;
45077;SDS011;60508;42.622;25.416;2023-05-21T00:37:33;9.07;;;4.20;;
45077;SDS011;60508;42.622;25.416;2023-05-21T00:40:00;6.65;;;4.47;;
45077;SDS011;60508;42.622;25.416;2023-05-21T00:42:35;5.30;;;4.20;;
45077;SDS011;60508;42.622;25.416;2023-05-21T00:45:06;10.15;;;5.28;;
45077;SDS011;60508;42.622;25.416;2023-05-21T00:47:33;7.72;;;4.60;;
45077;SDS011;60508;42.622;25.416;2023-05-21T00:50:19;12.18;;;4.10;;
45077;SDS011;60508;42.622;25.416;2023-05-21T00:52:51;13.43;;;4.68;;
45077;SDS011;60508;42.622;25.416;2023-05-21T00:55:17;10.90;;;4.57;;
45077;SDS011;60508;42.622;25.416;2023-05-21T00:57:52;8.88;;;4.13;;
45077;SDS011;60508;42.622;25.416;2023-05-21T01:00:19;8.55;;;4.32;;
45077;SDS011;60508;42.622;25.416;2023-05-21T01:02:46;8.05;;;4.32;;
45077;SDS011;60508;42.622;25.416;2023-05-21T01:05:12;16.60;;;4.25;;
45077;SDS011;60508;42.622;25.416;2023-05-21T01:07:40;6.72;;;4.22;;
45077;SDS011;60508;42.622;25.416;2023-05-21T01:10:07;8.98;;;4.28;;
45077;SDS011;60508;42.622;25.416;2023-05-21T01:12:36;4.97;;;3.58;;
45077;SDS011;60508;42.622;25.416;2023-05-21T01:15:04;5.95;;;3.85;;
45077;SDS011;60508;42.622;25.416;2023-05-21T01:17:40;7.00;;;3.90;;
45077;SDS011;60508;42.622;25.416;2023-05-21T01:20:07;9.63;;;4.53;;
45077;SDS011;60508;42.622;25.416;2023-05-21T01:22:57;10.35;;;3.75;;
45077;SDS011;60508;42.622;25.416;2023-05-21T01:25:33;9.93;;;3.42;;
45077;SDS011;60508;42.622;25.416;2023-05-21T01:28:00;11.38;;;4.32;;
45077;SDS011;60508;42.622;25.416;2023-05-21T01:30:27;13.95;;;3.78;;
45077;SDS011;60508;42.622;25.416;2023-05-21T01:32:55;6.13;;;3.95;;
45077;SDS011;60508;42.622;25.416;2023-05-21T01:36:20;7.15;;;3.72;;
45077;SDS011;60508;42.622;25.416;2023-05-21T01:41:16;6.80;;;4.05;;
45077;SDS011;60508;42.622;25.416;2023-05-21T01:43:45;6.10;;;4.20;;
45077;SDS011;60508;42.622;25.416;2023-05-21T01:46:15;6.80;;;4.63;;
45077;SDS011;60508;42.622;25.416;2023-05-21T01:48:45;7.95;;;3.65;;
45077;SDS011;60508;42.622;25.416;2023-05-21T01:51:12;8.20;;;4.53;;
45077;SDS011;60508;42.622;25.416;2023-05-21T01:53:47;5.90;;;3.88;;
45077;SDS011;60508;42.622;25.416;2023-05-21T01:56:14;10.15;;;3.30;;
45077;SDS011;60508;42.622;25.416;2023-05-21T01:58:41;5.47;;;3.35;;
45077;SDS011;60508;42.622;25.416;2023-05-21T02:01:09;5.15;;;3.50;;
45077;SDS011;60508;42.622;25.416;2023-05-21T02:03:36;7.43;;;4.00;;
45077;SDS011;60508;42.622;25.416;2023-05-21T02:06:11;9.40;;;2.97;;
45077;SDS011;60508;42.622;25.416;2023-05-21T02:08:38;5.25;;;3.05;;
45077;SDS011;60508;42.622;25.416;2023-05-21T02:11:05;5.65;;;3.30;;
45077;SDS011;60508;42.622;25.416;2023-05-21T02:13:32;10.52;;;3.53;;
45077;SDS011;60508;42.622;25.416;2023-05-21T02:16:04;9.00;;;3.65;;
45077;SDS011;60508;42.622;25.416;2023-05-21T02:18:36;10.77;;;2.90;;
45077;SDS011;60508;42.622;25.416;2023-05-21T02:21:03;9.25;;;4.15;;
45077;SDS011;60508;42.622;25.416;2023-05-21T02:23:38;8.00;;;3.45;;
45077;SDS011;60508;42.622;25.416;2023-05-21T02:26:05;7.82;;;3.17;;
45077;SDS011;60508;42.622;25.416;2023-05-21T02:28:32;4.50;;;2.90;;
45077;SDS011;60508;42.622;25.416;2023-05-21T02:30:59;5.50;;;3.55;;
45077;SDS011;60508;42.622;25.416;2023-05-21T02:33:33;10.73;;;3.40;;
45077;SDS011;60508;42.622;25.416;2023-05-21T02:36:00;6.07;;;3.75;;
45077;SDS011;60508;42.622;25.416;2023-05-21T02:38:27;9.60;;;4.22;;
45077;SDS011;60508;42.622;25.416;2023-05-21T02:40:53;4.70;;;3.40;;
45077;SDS011;60508;42.622;25.416;2023-05-21T02:43:20;13.88;;;4.45;;
45077;SDS011;60508;42.622;25.416;2023-05-21T02:45:47;4.63;;;3.40;;
45077;SDS011;60508;42.622;25.416;2023-05-21T02:48:23;6.00;;;4.07;;
45077;SDS011;60508;42.622;25.416;2023-05-21T02:50:49;11.07;;;4.20;;
45077;SDS011;60508;42.622;25.416;2023-05-21T02:53:16;9.10;;;3.17;;
45077;SDS011;60508;42.622;25.416;2023-05-21T02:55:51;8.10;;;4.47;;
45077;SDS011;60508;42.622;25.416;2023-05-21T02:58:18;6.45;;;4.82;;
45077;SDS011;60508;42.622;25.416;2023-05-21T03:00:44;7.53;;;3.47;;
45077;SDS011;60508;42.622;25.416;2023-05-21T03:03:15;6.82;;;3.70;;
45077;SDS011;60508;42.622;25.416;2023-05-21T03:05:42;9.45;;;3.85;;
45077;SDS011;60508;42.622;25.416;2023-05-21T03:08:08;12.40;;;2.97;;
45077;SDS011;60508;42.622;25.416;2023-05-21T03:10:35;16.70;;;3.53;;
45077;SDS011;60508;42.622;25.416;2023-05-21T03:13:01;5.93;;;3.45;;
45077;SDS011;60508;42.622;25.416;2023-05-21T03:15:30;3.92;;;2.95;;
45077;SDS011;60508;42.622;25.416;2023-05-21T03:18:05;5.80;;;3.53;;
45077;SDS011;60508;42.622;25.416;2023-05-21T03:20:32;5.43;;;3.55;;
45077;SDS011;60508;42.622;25.416;2023-05-21T03:22:59;6.20;;;3.20;;
45077;SDS011;60508;42.622;25.416;2023-05-21T03:25:33;3.85;;;3.15;;
45077;SDS011;60508;42.622;25.416;2023-05-21T03:28:01;6.80;;;3.38;;
45077;SDS011;60508;42.622;25.416;2023-05-21T03:30:56;9.70;;;3.17;;
45077;SDS011;60508;42.622;25.416;2023-05-21T03:33:41;15.30;;;3.35;;
45077;SDS011;60508;42.622;25.416;2023-05-21T03:36:20;10.27;;;4.35;;
45077;SDS011;60508;42.622;25.416;2023-05-21T03:38:49;8.32;;;5.30;;
45077;SDS011;60508;42.622;25.416;2023-05-21T03:41:16;11.07;;;4.13;;
45077;SDS011;60508;42.622;25.416;2023-05-21T03:43:46;8.35;;;3.72;;
45077;SDS011;60508;42.622;25.416;2023-05-21T03:46:13;5.28;;;3.97;;
45077;SDS011;60508;42.622;25.416;2023-05-21T03:49:00;17.60;;;7.90;;
45077;SDS011;60508;42.622;25.416;2023-05-21T03:51:38;14.63;;;5.43;;
45077;SDS011;60508;42.622;25.416;2023-05-21T03:54:06;6.32;;;3.25;;
45077;SDS011;60508;42.622;25.416;2023-05-21T03:56:35;7.00;;;4.00;;
45077;SDS011;60508;42.622;25.416;2023-05-21T03:59:03;13.13;;;6.60;;
45077;SDS011;60508;42.622;25.416;2023-05-21T04:01:37;6.97;;;3.45;;
45077;SDS011;60508;42.622;25.416;2023-05-21T04:04:05;7.10;;;3.00;;
45077;SDS011;60508;42.622;25.416;2023-05-21T04:06:32;12.25;;;5.43;;
45077;SDS011;60508;42.622;25.416;2023-05-21T04:08:58;20.35;;;4.10;;
45077;SDS011;60508;42.622;25.416;2023-05-21T04:11:26;6.18;;;4.68;;
45077;SDS011;60508;42.622;25.416;2023-05-21T04:14:00;7.00;;;5.47;;
45077;SDS011;60508;42.622;25.416;2023-05-21T04:16:28;5.13;;;3.47;;
45077;SDS011;60508;42.622;25.416;2023-05-21T04:19:00;7.50;;;5.05;;
45077;SDS011;60508;42.622;25.416;2023-05-21T04:21:29;13.80;;;7.05;;
45077;SDS011;60508;42.622;25.416;2023-05-21T04:24:04;8.57;;;5.53;;
45077;SDS011;60508;42.622;25.416;2023-05-21T04:27:01;20.70;;;4.70;;
45077;SDS011;60508;42.622;25.416;2023-05-21T04:29:37;7.32;;;5.22;;
45077;SDS011;60508;42.622;25.416;2023-05-21T04:32:08;23.15;;;10.77;;
45077;SDS011;60508;42.622;25.416;2023-05-21T04:34:34;11.38;;;6.85;;
45077;SDS011;60508;42.622;25.416;2023-05-21T04:37:08;14.13;;;5.07;;
45077;SDS011;60508;42.622;25.416;2023-05-21T04:39:35;17.20;;;5.03;;
45077;SDS011;60508;42.622;25.416;2023-05-21T04:42:02;11.20;;;4.95;;
45077;SDS011;60508;42.622;25.416;2023-05-21T04:44:29;8.57;;;4.50;;
45077;SDS011;60508;42.622;25.416;2023-05-21T04:46:57;11.70;;;5.35;;
45077;SDS011;60508;42.622;25.416;2023-05-21T04:49:24;7.97;;;4.45;;
45077;SDS011;60508;42.622;25.416;2023-05-21T04:51:50;17.67;;;7.75;;
45077;SDS011;60508;42.622;25.416;2023-05-21T04:54:25;9.68;;;4.13;;
45077;SDS011;60508;42.622;25.416;2023-05-21T04:56:53;7.00;;;5.18;;
45077;SDS011;60508;42.622;25.416;2023-05-21T04:59:19;10.20;;;4.88;;
45077;SDS011;60508;42.622;25.416;2023-05-21T05:01:49;6.43;;;4.78;;
45077;SDS011;60508;42.622;25.416;2023-05-21T05:04:16;9.05;;;6.10;;
45077;SDS011;60508;42.622;25.416;2023-05-21T05:06:43;9.18;;;5.35;;
45077;SDS011;60508;42.622;25.416;2023-05-21T05:09:10;12.65;;;4.53;;
45077;SDS011;60508;42.622;25.416;2023-05-21T05:11:45;7.63;;;3.45;;
45077;SDS011;60508;42.622;25.416;2023-05-21T05:14:11;6.97;;;4.38;;
45077;SDS011;60508;42.622;25.416;2023-05-21T05:16:38;6.05;;;3.72;;
45077;SDS011;60508;42.622;25.416;2023-05-21T05:19:05;11.10;;;4.20;;
45077;SDS011;60508;42.622;25.416;2023-05-21T05:21:38;13.40;;;7.88;;
45077;SDS011;60508;42.622;25.416;2023-05-21T05:24:05;8.75;;;5.10;;
45077;SDS011;60508;42.622;25.416;2023-05-21T05:26:32;7.88;;;5.13;;
45077;SDS011;60508;42.622;25.416;2023-05-21T05:28:59;6.15;;;4.72;;
45077;SDS011;60508;42.622;25.416;2023-05-21T05:31:26;10.35;;;3.88;;
45077;SDS011;60508;42.622;25.416;2023-05-21T05:33:53;10.38;;;4.90;;
45077;SDS011;60508;42.622;25.416;2023-05-21T05:36:29;16.02;;;5.35;;
45077;SDS011;60508;42.622;25.416;2023-05-21T05:38:56;13.57;;;6.82;;
45077;SDS011;60508;42.622;25.416;2023-05-21T05:41:23;28.05;;;8.57;;
45077;SDS011;60508;42.622;25.416;2023-05-21T05:43:50;16.73;;;11.00;;
45077;SDS011;60508;42.622;25.416;2023-05-21T05:46:19;8.23;;;5.03;;
45077;SDS011;60508;42.622;25.416;2023-05-21T05:48:45;19.88;;;10.07;;
45077;SDS011;60508;42.622;25.416;2023-05-21T05:51:21;11.15;;;6.22;;
45077;SDS011;60508;42.622;25.416;2023-05-21T05:53:47;14.82;;;7.10;;
45077;SDS011;60508;42.622;25.416;2023-05-21T05:56:14;7.50;;;5.07;;
45077;SDS011;60508;42.622;25.416;2023-05-21T05:58:51;11.50;;;7.00;;
45077;SDS011;60508;42.622;25.416;2023-05-21T06:01:18;8.90;;;6.60;;
45077;SDS011;60508;42.622;25.416;2023-05-21T06:03:45;10.18;;;6.65;;
45077;SDS011;60508;42.622;25.416;2023-05-21T06:06:19;9.23;;;4.53;;
45077;SDS011;60508;42.622;25.416;2023-05-21T06:08:47;14.43;;;6.38;;
45077;SDS011;60508;42.622;25.416;2023-05-21T06:11:13;8.18;;;5.13;;
45077;SDS011;60508;42.622;25.416;2023-05-21T06:13:44;11.45;;;5.13;;
45077;SDS011;60508;42.622;25.416;2023-05-21T06:16:18;12.55;;;5.90;;
45077;SDS011;60508;42.622;25.416;2023-05-21T06:18:45;8.60;;;5.40;;
45077;SDS011;60508;42.622;25.416;2023-05-21T06:21:12;21.98;;;6.70;;
45077;SDS011;60508;42.622;25.416;2023-05-21T06:23:39;8.20;;;6.05;;
45077;SDS011;60508;42.622;25.416;2023-05-21T06:26:06;11.73;;;6.03;;
45077;SDS011;60508;42.622;25.416;2023-05-21T06:28:34;7.40;;;4.72;;
45077;SDS011;60508;42.622;25.416;2023-05-21T06:31:09;7.07;;;5.13;;
45077;SDS011;60508;42.622;25.416;2023-05-21T06:33:38;9.82;;;5.45;;
45077;SDS011;60508;42.622;25.416;2023-05-21T06:36:06;18.42;;;11.48;;
45077;SDS011;60508;42.622;25.416;2023-05-21T06:38:32;17.92;;;11.32;;
45077;SDS011;60508;42.622;25.416;2023-05-21T06:41:01;16.75;;;9.00;;
45077;SDS011;60508;42.622;25.416;2023-05-21T06:43:58;18.23;;;12.02;;
45077;SDS011;60508;42.622;25.416;2023-05-21T06:47:00;17.88;;;8.70;;
45077;SDS011;60508;42.622;25.416;2023-05-21T06:49:26;6.88;;;3.25;;
45077;SDS011;60508;42.622;25.416;2023-05-21T06:51:53;7.88;;;3.10;;
45077;SDS011;60508;42.622;25.416;2023-05-21T06:54:27;5.45;;;3.47;;
45077;SDS011;60508;42.622;25.416;2023-05-21T06:56:54;6.10;;;3.58;;
45077;SDS011;60508;42.622;25.416;2023-05-21T06:59:21;7.85;;;3.83;;
45077;SDS011;60508;42.622;25.416;2023-05-21T07:01:48;11.00;;;6.00;;
45077;SDS011;60508;42.622;25.416;2023-05-21T07:04:15;7.55;;;3.55;;
45077;SDS011;60508;42.622;25.416;2023-05-21T07:06:51;10.35;;;4.32;;
45077;SDS011;60508;42.622;25.416;2023-05-21T07:09:19;8.70;;;4.28;;
45077;SDS011;60508;42.622;25.416;2023-05-21T07:11:46;4.93;;;3.83;;
45077;SDS011;60508;42.622;25.416;2023-05-21T07:14:15;10.55;;;4.30;;
45077;SDS011;60508;42.622;25.416;2023-05-21T07:16:42;7.97;;;4.10;;
45077;SDS011;60508;42.622;25.416;2023-05-21T07:19:17;6.43;;;3.35;;
45077;SDS011;60508;42.622;25.416;2023-05-21T07:21:44;14.43;;;4.15;;
45077;SDS011;60508;42.622;25.416;2023-05-21T07:24:12;9.80;;;4.25;;
45077;SDS011;60508;42.622;25.416;2023-05-21T07:26:40;8.82;;;4.78;;
45077;SDS011;60508;42.622;25.416;2023-05-21T07:29:07;8.98;;;4.32;;
45077;SDS011;60508;42.622;25.416;2023-05-21T07:31:42;6.65;;;4.28;;
45077;SDS011;60508;42.622;25.416;2023-05-21T07:34:10;12.93;;;5.20;;
45077;SDS011;60508;42.622;25.416;2023-05-21T07:36:38;16.98;;;4.75;;
45077;SDS011;60508;42.622;25.416;2023-05-21T07:39:15;10.98;;;4.22;;
45077;SDS011;60508;42.622;25.416;2023-05-21T07:41:42;5.20;;;3.42;;
45077;SDS011;60508;42.622;25.416;2023-05-21T07:44:09;15.95;;;3.40;;
45077;SDS011;60508;42.622;25.416;2023-05-21T07:46:47;7.97;;;3.70;;
45077;SDS011;60508;42.622;25.416;2023-05-21T07:49:14;16.30;;;3.88;;
45077;SDS011;60508;42.622;25.416;2023-05-21T07:51:42;19.40;;;3.03;;
45077;SDS011;60508;42.622;25.416;2023-05-21T07:54:10;14.40;;;3.70;;
45077;SDS011;60508;42.622;25.416;2023-05-21T07:56:37;4.60;;;3.08;;
45077;SDS011;60508;42.622;25.416;2023-05-21T07:59:05;18.75;;;4.18;;
45077;SDS011;60508;42.622;25.416;2023-05-21T08:01:41;8.27;;;3.67;;
45077;SDS011;60508;42.622;25.416;2023-05-21T08:04:08;3.78;;;3.30;;
45077;SDS011;60508;42.622;25.416;2023-05-21T08:06:35;7.35;;;3.45;;
45077;SDS011;60508;42.622;25.416;2023-05-21T08:09:03;11.88;;;3.35;;
45077;SDS011;60508;42.622;25.416;2023-05-21T08:11:34;8.50;;;2.85;;
45077;SDS011;60508;42.622;25.416;2023-05-21T08:14:06;5.80;;;3.65;;
45077;SDS011;60508;42.622;25.416;2023-05-21T08:16:33;6.15;;;3.30;;
45077;SDS011;60508;42.622;25.416;2023-05-21T08:19:01;6.68;;;4.30;;
45077;SDS011;60508;42.622;25.416;2023-05-21T08:21:28;5.63;;;3.35;;
45077;SDS011;60508;42.622;25.416;2023-05-21T08:23:56;6.35;;;3.30;;
45077;SDS011;60508;42.622;25.416;2023-05-21T08:26:25;6.13;;;3.90;;
45077;SDS011;60508;42.622;25.416;2023-05-21T08:28:59;10.10;;;3.72;;
45077;SDS011;60508;42.622;25.416;2023-05-21T08:31:27;7.47;;;4.50;;
45077;SDS011;60508;42.622;25.416;2023-05-21T08:33:53;13.32;;;4.68;;
45077;SDS011;60508;42.622;25.416;2023-05-21T08:36:32;7.07;;;4.00;;
45077;SDS011;60508;42.622;25.416;2023-05-21T08:39:05;14.25;;;5.35;;
45077;SDS011;60508;42.622;25.416;2023-05-21T08:41:34;16.40;;;11.10;;
45077;SDS011;60508;42.622;25.416;2023-05-21T08:44:02;17.17;;;12.68;;
45077;SDS011;60508;42.622;25.416;2023-05-21T08:46:32;14.52;;;8.23;;
45077;SDS011;60508;42.622;25.416;2023-05-21T08:49:13;6.82;;;4.25;;
45077;SDS011;60508;42.622;25.416;2023-05-21T08:51:44;10.93;;;4.80;;
45077;SDS011;60508;42.622;25.416;2023-05-21T08:54:12;15.55;;;8.85;;
45077;SDS011;60508;42.622;25.416;2023-05-21T08:56:47;18.88;;;8.57;;
45077;SDS011;60508;42.622;25.416;2023-05-21T08:59:16;10.88;;;5.22;;
45077;SDS011;60508;42.622;25.416;2023-05-21T09:01:44;9.05;;;5.55;;
45077;SDS011;60508;42.622;25.416;2023-05-21T09:04:33;5.97;;;4.55;;
45077;SDS011;60508;42.622;25.416;2023-05-21T09:07:02;11.93;;;4.22;;
45077;SDS011;60508;42.622;25.416;2023-05-21T09:10:07;11.07;;;5.38;;
45077;SDS011;60508;42.622;25.416;2023-05-21T09:12:45;10.73;;;4.90;;
45077;SDS011;60508;42.622;25.416;2023-05-21T09:15:14;16.92;;;5.32;;
45077;SDS011;60508;42.622;25.416;2023-05-21T09:17:40;11.80;;;7.85;;
45077;SDS011;60508;42.622;25.416;2023-05-21T09:20:34;8.32;;;6.38;;
45077;SDS011;60508;42.622;25.416;2023-05-21T09:23:03;17.33;;;10.48;;
45077;SDS011;60508;42.622;25.416;2023-05-21T09:25:32;14.50;;;8.70;;
45077;SDS011;60508;42.622;25.416;2023-05-21T09:28:10;11.88;;;8.18;;
45077;SDS011;60508;42.622;25.416;2023-05-21T09:30:43;25.45;;;13.80;;
45077;SDS011;60508;42.622;25.416;2023-05-21T09:33:11;14.65;;;3.35;;
45077;SDS011;60508;42.622;25.416;2023-05-21T09:35:46;8.10;;;3.03;;
45077;SDS011;60508;42.622;25.416;2023-05-21T09:38:14;4.55;;;3.00;;
45077;SDS011;60508;42.622;25.416;2023-05-21T09:40:43;7.80;;;2.88;;
45077;SDS011;60508;42.622;25.416;2023-05-21T09:43:14;4.93;;;3.15;;
45077;SDS011;60508;42.622;25.416;2023-05-21T09:45:51;9.15;;;3.13;;
45077;SDS011;60508;42.622;25.416;2023-05-21T09:51:12;6.07;;;2.60;;
45077;SDS011;60508;42.622;25.416;2023-05-21T09:53:50;6.93;;;3.00;;
45077;SDS011;60508;42.622;25.416;2023-05-21T09:56:23;5.07;;;2.92;;
45077;SDS011;60508;42.622;25.416;2023-05-21T09:58:58;7.05;;;3.00;;
45077;SDS011;60508;42.622;25.416;2023-05-21T10:01:35;4.78;;;3.00;;
45077;SDS011;60508;42.622;25.416;2023-05-21T10:04:06;4.22;;;2.60;;
45077;SDS011;60508;42.622;25.416;2023-05-21T10:06:36;8.98;;;2.70;;
45077;SDS011;60508;42.622;25.416;2023-05-21T10:09:08;7.43;;;3.05;;
45077;SDS011;60508;42.622;25.416;2023-05-21T10:11:36;9.57;;;3.05;;
45077;SDS011;60508;42.622;25.416;2023-05-21T10:14:16;5.50;;;2.90;;
45077;SDS011;60508;42.622;25.416;2023-05-21T10:16:46;8.88;;;3.03;;
45077;SDS011;60508;42.622;25.416;2023-05-21T10:19:13;4.13;;;3.00;;
45077;SDS011;60508;42.622;25.416;2023-05-21T10:21:44;4.75;;;3.47;;
45077;SDS011;60508;42.622;25.416;2023-05-21T10:24:11;9.63;;;3.15;;
45077;SDS011;60508;42.622;25.416;2023-05-21T10:26:46;5.18;;;3.50;;
45077;SDS011;60508;42.622;25.416;2023-05-21T10:29:14;10.48;;;3.50;;
45077;SDS011;60508;42.622;25.416;2023-05-21T10:31:41;6.82;;;3.15;;
45077;SDS011;60508;42.622;25.416;2023-05-21T10:34:14;4.05;;;3.05;;
45077;SDS011;60508;42.622;25.416;2023-05-21T10:36:42;10.82;;;2.88;;
45077;SDS011;60508;42.622;25.416;2023-05-21T10:39:17;4.03;;;2.63;;
45077;SDS011;60508;42.622;25.416;2023-05-21T10:41:48;10.60;;;3.22;;
45077;SDS011;60508;42.622;25.416;2023-05-21T10:44:34;9.73;;;2.97;;
45077;SDS011;60508;42.622;25.416;2023-05-21T10:56:44;7.75;;;3.50;;
45077;SDS011;60508;42.622;25.416;2023-05-21T11:01:57;9.45;;;3.55;;
45077;SDS011;60508;42.622;25.416;2023-05-21T11:04:25;4.90;;;3.33;;
45077;SDS011;60508;42.622;25.416;2023-05-21T11:06:53;5.20;;;2.70;;
45077;SDS011;60508;42.622;25.416;2023-05-21T11:09:29;4.50;;;3.53;;
45077;SDS011;60508;42.622;25.416;2023-05-21T11:11:56;8.10;;;4.82;;
45077;SDS011;60508;42.622;25.416;2023-05-21T11:14:25;10.25;;;3.50;;
45077;SDS011;60508;42.622;25.416;2023-05-21T11:17:01;8.75;;;3.50;;
45077;SDS011;60508;42.622;25.416;2023-05-21T11:19:33;13.25;;;3.20;;
45077;SDS011;60508;42.622;25.416;2023-05-21T11:22:05;4.63;;;3.30;;
45077;SDS011;60508;42.622;25.416;2023-05-21T11:24:37;11.23;;;2.90;;
45077;SDS011;60508;42.622;25.416;2023-05-21T11:30:07;10.07;;;3.25;;
45077;SDS011;60508;42.622;25.416;2023-05-21T11:32:39;9.65;;;3.13;;
45077;SDS011;60508;42.622;25.416;2023-05-21T11:35:54;8.23;;;3.42;;
45077;SDS011;60508;42.622;25.416;2023-05-21T11:38:26;11.23;;;3.30;;
45077;SDS011;60508;42.622;25.416;2023-05-21T11:40:54;11.68;;;3.25;;
45077;SDS011;60508;42.622;25.416;2023-05-21T11:43:39;4.38;;;3.00;;
45077;SDS011;60508;42.622;25.416;2023-05-21T11:46:09;7.75;;;3.55;;
45077;SDS011;60508;42.622;25.416;2023-05-21T11:48:37;7.13;;;3.55;;
45077;SDS011;60508;42.622;25.416;2023-05-21T11:51:06;8.85;;;3.42;;
45077;SDS011;60508;42.622;25.416;2023-05-21T11:53:33;5.88;;;2.88;;
45077;SDS011;60508;42.622;25.416;2023-05-21T11:56:04;6.43;;;3.13;;
45077;SDS011;60508;42.622;25.416;2023-05-21T11:58:35;14.63;;;3.20;;
45077;SDS011;60508;42.622;25.416;2023-05-21T12:01:19;14.68;;;2.80;;
45077;SDS011;60508;42.622;25.416;2023-05-21T12:03:50;4.93;;;3.05;;
45077;SDS011;60508;42.622;25.416;2023-05-21T12:06:25;10.85;;;3.42;;
45077;SDS011;60508;42.622;25.416;2023-05-21T12:08:52;6.03;;;2.65;;
45077;SDS011;60508;42.622;25.416;2023-05-21T12:11:23;2.88;;;2.30;;
45077;SDS011;60508;42.622;25.416;2023-05-21T12:13:50;6.43;;;2.60;;
45077;SDS011;60508;42.622;25.416;2023-05-21T12:16:17;6.28;;;2.53;;
45077;SDS011;60508;42.622;25.416;2023-05-21T12:18:44;9.00;;;3.25;;
45077;SDS011;60508;42.622;25.416;2023-05-21T12:21:10;8.57;;;3.03;;
45077;SDS011;60508;42.622;25.416;2023-05-21T12:23:44;7.65;;;3.58;;
45077;SDS011;60508;42.622;25.416;2023-05-21T12:26:11;6.47;;;3.92;;
45077;SDS011;60508;42.622;25.416;2023-05-21T12:28:38;5.00;;;3.80;;
45077;SDS011;60508;42.622;25.416;2023-05-21T12:31:05;5.20;;;2.97;;
45077;SDS011;60508;42.622;25.416;2023-05-21T12:33:46;8.18;;;4.78;;
45077;SDS011;60508;42.622;25.416;2023-05-21T12:36:21;7.75;;;3.50;;
45077;SDS011;60508;42.622;25.416;2023-05-21T12:38:51;5.15;;;3.50;;
45077;SDS011;60508;42.622;25.416;2023-05-21T12:41:17;11.27;;;4.43;;
45077;SDS011;60508;42.622;25.416;2023-05-21T12:43:45;4.10;;;3.60;;
45077;SDS011;60508;42.622;25.416;2023-05-21T12:46:12;7.30;;;3.97;;
45077;SDS011;60508;42.622;25.416;2023-05-21T12:48:49;7.70;;;3.22;;
45077;SDS011;60508;42.622;25.416;2023-05-21T12:51:37;7.72;;;3.95;;
45077;SDS011;60508;42.622;25.416;2023-05-21T12:54:10;10.20;;;3.65;;
45077;SDS011;60508;42.622;25.416;2023-05-21T12:56:44;4.97;;;3.83;;
45077;SDS011;60508;42.622;25.416;2023-05-21T12:59:12;9.70;;;3.92;;
45077;SDS011;60508;42.622;25.416;2023-05-21T13:01:47;6.90;;;4.32;;
45077;SDS011;60508;42.622;25.416;2023-05-21T13:04:13;6.57;;;4.40;;
45077;SDS011;60508;42.622;25.416;2023-05-21T13:06:41;11.02;;;4.40;;
45077;SDS011;60508;42.622;25.416;2023-05-21T13:09:18;9.70;;;6.60;;
45077;SDS011;60508;42.622;25.416;2023-05-21T13:11:45;11.32;;;5.55;;
45077;SDS011;60508;42.622;25.416;2023-05-21T13:14:11;5.45;;;4.90;;
45077;SDS011;60508;42.622;25.416;2023-05-21T13:16:38;22.27;;;10.45;;
45077;SDS011;60508;42.622;25.416;2023-05-21T13:19:04;12.95;;;8.88;;
45077;SDS011;60508;42.622;25.416;2023-05-21T13:21:38;10.73;;;5.97;;
45077;SDS011;60508;42.622;25.416;2023-05-21T13:24:05;8.30;;;5.80;;
45077;SDS011;60508;42.622;25.416;2023-05-21T13:26:32;9.75;;;6.82;;
45077;SDS011;60508;42.622;25.416;2023-05-21T13:28:59;9.98;;;6.80;;
45077;SDS011;60508;42.622;25.416;2023-05-21T13:31:26;12.50;;;8.00;;
45077;SDS011;60508;42.622;25.416;2023-05-21T13:33:53;8.73;;;6.20;;
45077;SDS011;60508;42.622;25.416;2023-05-21T13:36:20;10.15;;;5.85;;
45077;SDS011;60508;42.622;25.416;2023-05-21T13:38:54;12.07;;;6.20;;
45077;SDS011;60508;42.622;25.416;2023-05-21T13:41:21;7.95;;;6.45;;
45077;SDS011;60508;42.622;25.416;2023-05-21T13:43:48;15.98;;;6.22;;
45077;SDS011;60508;42.622;25.416;2023-05-21T13:46:23;10.80;;;5.68;;
45077;SDS011;60508;42.622;25.416;2023-05-21T13:48:50;14.57;;;6.20;;
45077;SDS011;60508;42.622;25.416;2023-05-21T13:51:17;12.38;;;6.35;;
45077;SDS011;60508;42.622;25.416;2023-05-21T13:53:45;8.60;;;5.22;;
45077;SDS011;60508;42.622;25.416;2023-05-21T13:56:12;7.75;;;5.97;;
45077;SDS011;60508;42.622;25.416;2023-05-21T13:58:39;15.07;;;5.75;;
45077;SDS011;60508;42.622;25.416;2023-05-21T14:01:14;9.35;;;5.15;;
45077;SDS011;60508;42.622;25.416;2023-05-21T14:03:41;11.90;;;5.70;;
45077;SDS011;60508;42.622;25.416;2023-05-21T14:06:08;8.98;;;5.78;;
45077;SDS011;60508;42.622;25.416;2023-05-21T14:08:41;17.85;;;7.45;;
45077;SDS011;60508;42.622;25.416;2023-05-21T14:11:08;13.80;;;7.15;;
45077;SDS011;60508;42.622;25.416;2023-05-21T14:13:35;9.65;;;6.45;;
45077;SDS011;60508;42.622;25.416;2023-05-21T14:16:02;14.02;;;7.38;;
45077;SDS011;60508;42.622;25.416;2023-05-21T14:18:29;8.52;;;5.97;;
45077;SDS011;60508;42.622;25.416;2023-05-21T14:20:56;10.43;;;6.28;;
45077;SDS011;60508;42.622;25.416;2023-05-21T14:23:30;8.05;;;5.78;;
45077;SDS011;60508;42.622;25.416;2023-05-21T14:25:57;11.32;;;7.07;;
45077;SDS011;60508;42.622;25.416;2023-05-21T14:28:23;9.02;;;5.85;;
45077;SDS011;60508;42.622;25.416;2023-05-21T14:30:57;7.22;;;5.25;;
45077;SDS011;60508;42.622;25.416;2023-05-21T14:33:24;10.73;;;5.65;;
45077;SDS011;60508;42.622;25.416;2023-05-21T14:35:50;11.95;;;6.20;;
45077;SDS011;60508;42.622;25.416;2023-05-21T14:38:17;11.30;;;6.25;;
45077;SDS011;60508;42.622;25.416;2023-05-21T14:40:44;12.95;;;8.27;;
45077;SDS011;60508;42.622;25.416;2023-05-21T14:43:18;12.27;;;5.68;;
45077;SDS011;60508;42.622;25.416;2023-05-21T14:45:45;12.40;;;7.82;;
45077;SDS011;60508;42.622;25.416;2023-05-21T14:48:11;12.95;;;7.63;;
45077;SDS011;60508;42.622;25.416;2023-05-21T14:50:38;12.63;;;5.95;;
45077;SDS011;60508;42.622;25.416;2023-05-21T14:53:05;12.60;;;6.93;;
45077;SDS011;60508;42.622;25.416;2023-05-21T14:55:32;8.68;;;5.90;;
45077;SDS011;60508;42.622;25.416;2023-05-21T14:58:07;6.65;;;5.68;;
45077;SDS011;60508;42.622;25.416;2023-05-21T15:00:34;13.65;;;7.38;;
45077;SDS011;60508;42.622;25.416;2023-05-21T15:03:01;11.63;;;6.43;;
45077;SDS011;60508;42.622;25.416;2023-05-21T15:05:37;11.23;;;5.75;;
45077;SDS011;60508;42.622;25.416;2023-05-21T15:08:04;11.15;;;5.53;;